Terminal Aerodrome Forecast
Issued by NWS

Home | Current Version | Previous Version | Text Only | Print | Product List | Glossary On
Versions: 1 2 3 4 5 6 7 8 9 10 11 12 13
000
FTUS44 KLIX 240500
TAFMSY
TAF
KMSY 240520Z 2406/2506 20005KT P6SM FEW040
     FM240800 18003KT P6SM SCT020
      TEMPO 2410/2413 5SM BR
     FM241430 18009KT P6SM SCT035
     FM250100 18008KT P6SM SCT250=

USA.gov is the U.S. government's official web portal to all federal, state and local government web resources and services.